createdAt,value
2022-11-23T00:00:14.913Z,99874.41
2022-11-23T00:02:46.926Z,99874.44
2022-11-23T00:05:19.113Z,99883.13
2022-11-23T00:07:51.302Z,99882.28
2022-11-23T00:10:23.617Z,99874.53
2022-11-23T00:12:55.544Z,99884.03
2022-11-23T00:15:27.620Z,99875.41
2022-11-23T00:18:02.725Z,99876.25
2022-11-23T00:20:34.849Z,99878.84
2022-11-23T00:23:06.835Z,99873.66
2022-11-23T00:25:38.804Z,99878.00
2022-11-23T00:28:10.746Z,99874.53
2022-11-23T00:30:42.707Z,99873.69
2022-11-23T00:33:14.643Z,99878.88
2022-11-23T00:35:46.630Z,99875.38
2022-11-23T00:38:18.536Z,99873.69
2022-11-23T00:40:50.700Z,99874.53
2022-11-23T00:43:22.622Z,99875.38
2022-11-23T00:46:25.946Z,99867.59
2022-11-23T00:48:58.979Z,99876.28
2022-11-23T00:51:35.575Z,99865.91
2022-11-23T00:54:07.653Z,99875.41
2022-11-23T00:56:40.083Z,99879.72
2022-11-23T00:59:12.027Z,99874.53
2022-11-23T01:01:44.052Z,99871.97
2022-11-23T01:04:16.274Z,99877.13
2022-11-23T01:06:48.283Z,99873.69
2022-11-23T01:09:25.057Z,99873.69
2022-11-23T01:11:57.147Z,99873.66
2022-11-23T01:14:29.168Z,99872.78
2022-11-23T01:17:01.096Z,99875.38
2022-11-23T01:19:33.443Z,99878.81
2022-11-23T01:22:05.642Z,99878.81
2022-11-23T01:24:37.655Z,99878.78
2022-11-23T01:27:09.666Z,99872.72
2022-11-23T01:29:41.604Z,99868.38
2022-11-23T01:32:13.622Z,99866.59
2022-11-23T01:34:45.593Z,99872.69
2022-11-23T01:37:17.666Z,99873.53
2022-11-23T01:39:49.621Z,99867.47
2022-11-23T01:42:21.572Z,99873.53
2022-11-23T01:45:31.931Z,99875.28
2022-11-23T01:48:10.179Z,99881.34
2022-11-23T01:50:44.988Z,99883.97
2022-11-23T01:53:17.508Z,99882.22
2022-11-23T01:55:50.447Z,99880.50
2022-11-23T01:58:25.741Z,99881.34
2022-11-23T02:00:58.706Z,99879.63
2022-11-23T02:03:32.595Z,99877.91
2022-11-23T02:06:11.857Z,99871.88
2022-11-23T02:08:44.578Z,99879.63
2022-11-23T02:11:17.716Z,99873.53
2022-11-23T02:13:51.530Z,99871.81
2022-11-23T02:16:23.627Z,99870.06
2022-11-23T02:18:55.643Z,99873.53
2022-11-23T02:21:28.280Z,99867.41
2022-11-23T02:24:23.030Z,99866.56
2022-11-23T02:26:55.870Z,99864.75
2022-11-23T02:29:29.753Z,99865.63
2022-11-23T02:32:02.007Z,99861.34
2022-11-23T02:34:34.013Z,99862.22
2022-11-23T02:37:06.018Z,99860.47
2022-11-23T02:39:46.593Z,99863.06
2022-11-23T02:42:18.856Z,99870.84
2022-11-23T02:45:16.374Z,99866.53
2022-11-23T02:47:49.375Z,99860.50
2022-11-23T02:50:22.174Z,99861.34
2022-11-23T02:52:54.167Z,99861.34
2022-11-23T02:55:26.239Z,99862.19
2022-11-23T02:57:58.283Z,99862.19
2022-11-23T03:00:30.424Z,99859.63
2022-11-23T03:03:03.331Z,99857.03
2022-11-23T03:05:35.480Z,99859.63
2022-11-23T03:08:07.567Z,99865.69
2022-11-23T03:10:39.534Z,99872.59
2022-11-23T03:13:11.483Z,99859.66
2022-11-23T03:15:43.705Z,99858.78
2022-11-23T03:18:15.701Z,99870.84
2022-11-23T03:20:47.626Z,99875.19
2022-11-23T03:23:19.708Z,99869.97
2022-11-23T03:25:59.149Z,99880.34
2022-11-23T03:28:31.211Z,99877.75
2022-11-23T03:31:03.597Z,99875.13
2022-11-23T03:33:35.661Z,99869.94
2022-11-23T03:36:08.341Z,99877.72
2022-11-23T03:38:40.274Z,99876.88
2022-11-23T03:41:12.289Z,99877.72
2022-11-23T03:43:44.198Z,99876.03
2022-11-23T03:46:16.186Z,99879.47
2022-11-23T03:48:48.191Z,99880.34
2022-11-23T03:51:20.172Z,99873.44
2022-11-23T03:53:52.093Z,99889.03
2022-11-23T03:56:24.600Z,99890.78
2022-11-23T03:58:56.535Z,99884.69
2022-11-23T04:01:28.832Z,99882.94
2022-11-23T04:04:00.871Z,99888.13
2022-11-23T04:06:32.885Z,99895.09
2022-11-23T04:09:04.887Z,99883.81
2022-11-23T04:11:36.851Z,99883.84
2022-11-23T04:14:08.800Z,99882.06
2022-11-23T04:16:40.730Z,99883.78
2022-11-23T04:19:12.723Z,99873.41
2022-11-23T04:21:44.814Z,99879.44
2022-11-23T04:24:16.761Z,99883.81
2022-11-23T04:26:48.764Z,99875.97
2022-11-23T04:29:20.688Z,99875.94
2022-11-23T04:31:52.858Z,99875.94
2022-11-23T04:34:24.866Z,99877.63
2022-11-23T04:36:56.816Z,99879.41
2022-11-23T04:39:28.879Z,99877.63
2022-11-23T04:42:00.978Z,99879.34
2022-11-23T04:44:32.916Z,99883.69
2022-11-23T04:47:05.012Z,99879.44
2022-11-23T04:49:36.967Z,99882.84
2022-11-23T04:52:09.078Z,99886.25
2022-11-23T04:54:41.156Z,99881.03
2022-11-23T04:57:13.209Z,99882.75
2022-11-23T04:59:45.207Z,99888.84
2022-11-23T05:02:17.217Z,99895.78
2022-11-23T05:04:49.124Z,99891.44
2022-11-23T05:07:21.132Z,99882.75
2022-11-23T05:09:53.087Z,99885.31
2022-11-23T05:12:25.081Z,99886.25
2022-11-23T05:14:56.980Z,99887.06
2022-11-23T05:17:29.033Z,99891.41
2022-11-23T05:20:00.966Z,99887.94
2022-11-23T05:22:32.924Z,99888.75
2022-11-23T05:25:05.876Z,99887.88
2022-11-23T05:27:37.917Z,99894.88
2022-11-23T05:30:10.531Z,99889.69
2022-11-23T05:32:42.582Z,99893.09
2022-11-23T05:35:15.126Z,99891.34
2022-11-23T05:37:47.461Z,99891.31
2022-11-23T05:40:19.378Z,99897.34
2022-11-23T05:42:56.050Z,99894.72
2022-11-23T05:45:28.686Z,99903.41
2022-11-23T05:48:00.643Z,99907.78
2022-11-23T05:50:32.749Z,99912.09
2022-11-23T05:53:04.762Z,99911.25
2022-11-23T05:55:36.674Z,99906.84
2022-11-23T05:58:08.664Z,99906.81
2022-11-23T06:00:40.675Z,99900.72
2022-11-23T06:03:12.612Z,99913.78
2022-11-23T06:05:47.666Z,99910.28
2022-11-23T06:08:19.960Z,99914.59
2022-11-23T06:10:51.936Z,99917.19
2022-11-23T06:13:23.877Z,99918.06
2022-11-23T06:15:55.903Z,99923.25
2022-11-23T06:18:27.926Z,99920.63
2022-11-23T06:21:02.879Z,99924.97
2022-11-23T06:23:34.856Z,99926.69
2022-11-23T06:26:06.873Z,99927.53
2022-11-23T06:28:39.110Z,99933.56
2022-11-23T06:31:11.455Z,99930.03
2022-11-23T06:33:43.559Z,99936.06
2022-11-23T06:36:16.057Z,99939.53
2022-11-23T06:38:48.438Z,99945.59
2022-11-23T06:41:20.533Z,99939.53
2022-11-23T06:43:52.579Z,99943.00
2022-11-23T06:46:24.639Z,99938.69
2022-11-23T06:48:56.730Z,99943.00
2022-11-23T06:51:28.800Z,99944.78
2022-11-23T06:54:00.757Z,99940.44
2022-11-23T06:56:32.777Z,99942.16
2022-11-23T06:59:04.893Z,99940.50
2022-11-23T07:01:36.852Z,99945.69
2022-11-23T07:04:09.259Z,99948.28
2022-11-23T07:06:41.745Z,99955.19
2022-11-23T07:09:13.978Z,99950.00
2022-11-23T07:11:46.025Z,99956.91
2022-11-23T07:14:18.005Z,99957.81
2022-11-23T07:16:50.221Z,99968.25
2022-11-23T07:19:22.184Z,99963.03
2022-11-23T07:21:54.309Z,99959.59
2022-11-23T07:24:26.355Z,99963.09
2022-11-23T07:26:58.505Z,99964.03
2022-11-23T07:29:30.754Z,99970.09
2022-11-23T07:32:02.996Z,99973.59
2022-11-23T07:34:34.989Z,99974.47
2022-11-23T07:37:07.994Z,99982.31
2022-11-23T07:39:56.818Z,99984.94
2022-11-23T07:42:36.928Z,99994.47
2022-11-23T07:45:13.697Z,99991.84
2022-11-23T07:47:46.316Z,99995.31
2022-11-23T07:50:18.404Z,99996.16
2022-11-23T07:52:50.390Z,99995.25
2022-11-23T07:55:23.544Z,99996.97
2022-11-23T07:57:55.791Z,99999.56
2022-11-23T08:00:29.769Z,100004.78
2022-11-23T08:03:26.694Z,99996.91
2022-11-23T08:05:53.819Z,99997.75
2022-11-23T08:08:25.981Z,99998.53
2022-11-23T08:10:57.943Z,100002.88
2022-11-23T08:13:30.082Z,100005.44
2022-11-23T08:16:02.693Z,100010.66
2022-11-23T08:18:34.894Z,100010.66
2022-11-23T08:21:06.965Z,100003.63
2022-11-23T08:23:39.018Z,100007.13
2022-11-23T08:26:13.871Z,100016.72
2022-11-23T08:28:46.222Z,100016.66
2022-11-23T08:31:18.220Z,100014.94
2022-11-23T08:33:50.341Z,100015.78
2022-11-23T08:36:22.538Z,100017.47
2022-11-23T08:38:54.488Z,100010.53
2022-11-23T08:41:27.448Z,100009.69
2022-11-23T08:43:59.473Z,100016.59
2022-11-23T08:46:31.468Z,100015.72
2022-11-23T08:49:03.853Z,100013.97
2022-11-23T08:51:35.994Z,100020.84
2022-11-23T08:54:07.988Z,100018.19
2022-11-23T08:56:39.962Z,100025.97
2022-11-23T08:59:12.574Z,100025.91
2022-11-23T09:01:45.407Z,100029.41
2022-11-23T09:04:20.629Z,100028.53
2022-11-23T09:06:53.055Z,100024.97
2022-11-23T09:09:25.196Z,100029.25
2022-11-23T09:11:57.208Z,100032.69
2022-11-23T09:14:29.251Z,100036.25
2022-11-23T09:17:02.420Z,100039.00
2022-11-23T09:19:34.442Z,100041.56
2022-11-23T09:22:06.389Z,100035.47
2022-11-23T09:24:38.425Z,100040.63
2022-11-23T09:27:10.428Z,100048.28
2022-11-23T09:29:42.388Z,100043.13
2022-11-23T09:32:14.634Z,100044.78
2022-11-23T09:34:46.629Z,100041.13
2022-11-23T09:37:18.749Z,100043.84
2022-11-23T09:39:50.711Z,100046.38
2022-11-23T09:43:08.355Z,100055.00
2022-11-23T09:46:03.053Z,100047.91
2022-11-23T09:49:30.245Z,100053.03
2022-11-23T09:52:02.401Z,100044.13
2022-11-23T09:54:39.357Z,100045.66
2022-11-23T09:57:17.155Z,100048.19
2022-11-23T10:00:15.142Z,100049.16
2022-11-23T10:02:47.822Z,100052.59
2022-11-23T10:05:26.893Z,100046.28
2022-11-23T10:08:18.875Z,100041.97
2022-11-23T10:11:22.807Z,100049.13
2022-11-23T10:14:51.635Z,100054.41
2022-11-23T10:18:08.458Z,100048.25
2022-11-23T10:21:02.503Z,100050.59
2022-11-23T10:23:56.296Z,100051.56
2022-11-23T10:26:36.746Z,100057.28
2022-11-23T10:29:30.627Z,100055.41
2022-11-23T10:32:05.811Z,100048.53
2022-11-23T10:35:11.966Z,100052.81
2022-11-23T10:37:44.216Z,100052.81
2022-11-23T10:40:26.139Z,100052.84
2022-11-23T10:43:06.775Z,100049.56
2022-11-23T10:45:38.778Z,100052.84
2022-11-23T10:48:10.804Z,100055.22
2022-11-23T10:50:45.965Z,100058.47
2022-11-23T10:53:23.249Z,100055.97
2022-11-23T10:56:00.230Z,100048.22
2022-11-23T10:58:41.283Z,100054.44
2022-11-23T11:01:29.743Z,100049.13
2022-11-23T11:04:04.733Z,100053.41
2022-11-23T11:06:36.847Z,100041.91
2022-11-23T11:09:21.333Z,100037.38
2022-11-23T11:11:55.243Z,100038.97
2022-11-23T11:14:27.977Z,100038.41
2022-11-23T11:16:59.979Z,100034.81
2022-11-23T11:19:37.951Z,100037.44
2022-11-23T11:22:32.533Z,100033.16
2022-11-23T11:25:06.742Z,100038.50
2022-11-23T11:27:38.806Z,100044.38
2022-11-23T11:30:24.487Z,100037.31
2022-11-23T11:33:48.581Z,100032.00
2022-11-23T11:36:22.304Z,100034.47
2022-11-23T11:39:17.132Z,100039.03
2022-11-23T11:41:51.648Z,100033.84
2022-11-23T11:44:26.244Z,100033.16
2022-11-23T11:47:05.301Z,100033.06
2022-11-23T11:49:48.627Z,100024.31
2022-11-23T11:52:33.188Z,100031.88
2022-11-23T11:55:20.131Z,100027.47
2022-11-23T11:58:12.288Z,100023.31
2022-11-23T12:00:48.603Z,100024.22
2022-11-23T12:03:58.084Z,100020.53
2022-11-23T12:07:02.954Z,100016.41
2022-11-23T12:09:44.842Z,100011.50
2022-11-23T12:12:19.483Z,100016.75
2022-11-23T12:14:52.267Z,100016.97
2022-11-23T12:17:57.814Z,100030.69
2022-11-23T12:21:32.424Z,100025.88
2022-11-23T12:24:08.883Z,100025.53
2022-11-23T12:27:28.612Z,100020.03
2022-11-23T12:30:40.765Z,100014.16
2022-11-23T12:33:46.388Z,100017.50
2022-11-23T12:36:37.912Z,100008.09
2022-11-23T12:40:07.467Z,100015.09
2022-11-23T12:42:48.938Z,100013.81
2022-11-23T12:45:35.884Z,100015.50
2022-11-23T12:48:30.343Z,100010.94
2022-11-23T12:51:34.548Z,100008.22
2022-11-23T12:54:30.960Z,100005.41
2022-11-23T12:57:32.836Z,99997.50
2022-11-23T13:00:25.619Z,100000.06
2022-11-23T13:02:58.009Z,100001.09
2022-11-23T13:06:10.179Z,99994.97
2022-11-23T13:09:32.199Z,100003.03
2022-11-23T13:12:53.399Z,100003.13
2022-11-23T13:15:55.119Z,99995.84
2022-11-23T13:18:42.429Z,100000.44
2022-11-23T13:21:28.516Z,100001.31
2022-11-23T13:24:01.010Z,99992.09
2022-11-23T13:26:33.478Z,99993.09
2022-11-23T13:29:56.443Z,99980.69
2022-11-23T13:32:43.135Z,99981.38
2022-11-23T13:35:24.076Z,99986.94
2022-11-23T13:38:00.376Z,99974.81
2022-11-23T13:40:35.154Z,99977.59
2022-11-23T13:43:29.771Z,99970.19
2022-11-23T13:46:29.147Z,99969.31
2022-11-23T13:49:01.708Z,99977.34
2022-11-23T13:51:35.821Z,99971.16
2022-11-23T13:54:26.623Z,99968.56
2022-11-23T13:57:05.214Z,99968.78
2022-11-23T13:59:37.520Z,99969.78
2022-11-23T14:02:12.772Z,99965.47
2022-11-23T14:04:49.622Z,99965.50
2022-11-23T14:07:43.501Z,99970.03
2022-11-23T14:10:23.982Z,99970.00
2022-11-23T14:13:01.018Z,99978.06
2022-11-23T14:15:37.412Z,99971.25
2022-11-23T14:18:46.482Z,99969.41
2022-11-23T14:22:08.095Z,99965.09
2022-11-23T14:25:16.111Z,99967.63
2022-11-23T14:28:49.881Z,99969.34
2022-11-23T14:32:29.461Z,99979.94
2022-11-23T14:35:25.538Z,99978.31
2022-11-23T14:38:33.599Z,99994.03
2022-11-23T14:41:20.542Z,99995.84
2022-11-23T14:43:53.256Z,99996.81
2022-11-23T14:46:25.841Z,100002.91
2022-11-23T14:49:13.196Z,100000.38
2022-11-23T14:51:45.297Z,100006.56
2022-11-23T14:54:17.624Z,100005.72
2022-11-23T14:56:52.439Z,100002.25
2022-11-23T14:59:28.828Z,100006.72
2022-11-23T15:02:13.860Z,100011.16
2022-11-23T15:05:19.205Z,100007.75
2022-11-23T15:08:20.852Z,100001.81
2022-11-23T15:11:13.160Z,100009.72
2022-11-23T15:13:49.647Z,100002.81
2022-11-23T15:16:25.246Z,100014.06
2022-11-23T15:18:57.291Z,100015.84
2022-11-23T15:21:29.983Z,100010.63
2022-11-23T15:24:02.067Z,100017.59
2022-11-23T15:26:47.989Z,100008.09
2022-11-23T15:29:36.288Z,100016.84
2022-11-23T15:32:34.276Z,100008.22
2022-11-23T15:35:13.211Z,100007.38
2022-11-23T15:37:50.238Z,99999.66
2022-11-23T15:40:29.292Z,99990.22
2022-11-23T15:43:01.591Z,99988.53
2022-11-23T15:45:59.040Z,99975.53
2022-11-23T15:48:37.239Z,99973.03
2022-11-23T15:51:24.597Z,99973.09
2022-11-23T15:54:00.350Z,99973.91
2022-11-23T15:56:35.450Z,99982.53
2022-11-23T15:59:42.872Z,99983.56
2022-11-23T16:02:29.363Z,99998.34
2022-11-23T16:05:22.422Z,100003.63
2022-11-23T16:08:02.387Z,100002.88
2022-11-23T16:10:37.463Z,99996.81
2022-11-23T16:13:37.536Z,99988.13
2022-11-23T16:16:21.425Z,99997.75
2022-11-23T16:18:58.065Z,99992.50
2022-11-23T16:21:31.766Z,99991.66
2022-11-23T16:24:04.009Z,99991.72
2022-11-23T16:26:36.075Z,99985.56
2022-11-23T16:29:23.329Z,100000.38
2022-11-23T16:32:06.929Z,100012.59
2022-11-23T16:34:39.183Z,100018.75
2022-11-23T16:37:11.521Z,100018.75
2022-11-23T16:39:43.557Z,100029.16
2022-11-23T16:42:16.973Z,100030.94
2022-11-23T16:44:49.150Z,100030.25
2022-11-23T16:47:25.218Z,100044.13
2022-11-23T16:49:57.797Z,100045.88
2022-11-23T16:52:29.832Z,100058.06
2022-11-23T16:55:01.974Z,100063.28
2022-11-23T16:57:35.357Z,100069.44
2022-11-23T17:00:22.722Z,100078.09
2022-11-23T17:02:54.811Z,100080.69
2022-11-23T17:05:26.833Z,100088.50
2022-11-23T17:07:59.031Z,100082.44
2022-11-23T17:10:31.477Z,100083.31
2022-11-23T17:13:04.284Z,100085.06
2022-11-23T17:15:36.531Z,100098.06
2022-11-23T17:18:15.019Z,100100.69
2022-11-23T17:20:46.961Z,100098.13
2022-11-23T17:23:18.949Z,100097.31
2022-11-23T17:25:51.156Z,100105.09
2022-11-23T17:28:23.194Z,100103.41
2022-11-23T17:30:55.319Z,100109.47
2022-11-23T17:33:27.987Z,100117.31
2022-11-23T17:36:00.136Z,100106.06
2022-11-23T17:38:32.133Z,100113.84
2022-11-23T17:41:04.519Z,100110.41
2022-11-23T17:43:36.484Z,100113.00
2022-11-23T17:46:19.184Z,100108.66
2022-11-23T17:48:59.168Z,100118.19
2022-11-23T17:51:31.167Z,100119.97
2022-11-23T17:54:03.157Z,100126.91
2022-11-23T17:56:35.648Z,100128.66
2022-11-23T17:59:07.762Z,100133.00
2022-11-23T18:01:39.865Z,100126.06
2022-11-23T18:04:12.025Z,100137.34
2022-11-23T18:06:43.972Z,100136.50
2022-11-23T18:09:15.899Z,100132.13
2022-11-23T18:11:47.831Z,100135.59
2022-11-23T18:14:19.827Z,100137.38
2022-11-23T18:16:51.763Z,100140.88
2022-11-23T18:19:23.986Z,100141.72
2022-11-23T18:21:56.124Z,100140.88
2022-11-23T18:24:28.152Z,100144.34
2022-11-23T18:27:00.179Z,100144.38
2022-11-23T18:29:32.714Z,100146.09
2022-11-23T18:32:06.776Z,100148.72
2022-11-23T18:34:38.729Z,100149.59
2022-11-23T18:37:10.799Z,100147.88
2022-11-23T18:39:42.922Z,100154.78
2022-11-23T18:42:15.060Z,100159.13
2022-11-23T18:44:47.125Z,100153.09
2022-11-23T18:47:19.462Z,100160.88
2022-11-23T18:49:53.151Z,100153.97
2022-11-23T18:52:25.198Z,100160.88
2022-11-23T18:54:57.399Z,100159.16
2022-11-23T18:57:30.271Z,100165.22
2022-11-23T19:00:03.365Z,100162.63
2022-11-23T19:02:35.757Z,100173.03
2022-11-23T19:05:07.933Z,100179.09
2022-11-23T19:07:40.023Z,100180.81
2022-11-23T19:10:12.026Z,100178.19
2022-11-23T19:12:44.793Z,100183.38
2022-11-23T19:15:16.962Z,100177.28
2022-11-23T19:17:49.381Z,100179.88
2022-11-23T19:20:23.687Z,100176.41
2022-11-23T19:22:56.135Z,100178.16
2022-11-23T19:25:29.829Z,100176.41
2022-11-23T19:28:01.934Z,100182.44
2022-11-23T19:30:33.998Z,100188.53
2022-11-23T19:33:05.973Z,100183.28
2022-11-23T19:35:37.907Z,100190.22
2022-11-23T19:38:11.400Z,100186.78
2022-11-23T19:40:43.599Z,100188.50
2022-11-23T19:43:15.805Z,100190.22
2022-11-23T19:45:57.852Z,100191.09
2022-11-23T19:48:31.930Z,100195.44
2022-11-23T19:51:13.516Z,100194.56
2022-11-23T19:53:47.773Z,100194.56
2022-11-23T19:56:23.983Z,100204.97
2022-11-23T19:59:02.253Z,100197.16
2022-11-23T20:01:34.750Z,100199.78
2022-11-23T20:04:09.688Z,100196.31
2022-11-23T20:06:42.805Z,100205.84
2022-11-23T20:09:19.474Z,100212.78
2022-11-23T20:11:51.925Z,100206.69
2022-11-23T20:14:24.157Z,100205.84
2022-11-23T20:16:56.307Z,100209.28
2022-11-23T20:19:28.745Z,100212.78
2022-11-23T20:22:00.817Z,100216.22
2022-11-23T20:24:32.960Z,100215.34
2022-11-23T20:27:05.022Z,100215.34
2022-11-23T20:29:37.109Z,100221.44
2022-11-23T20:32:09.098Z,100224.91
2022-11-23T20:34:41.231Z,100224.06
2022-11-23T20:37:13.252Z,100228.38
2022-11-23T20:39:45.259Z,100232.72
2022-11-23T20:42:17.474Z,100233.56
2022-11-23T20:44:49.449Z,100234.44
2022-11-23T20:47:22.399Z,100236.19
2022-11-23T20:49:54.553Z,100234.44
2022-11-23T20:52:26.678Z,100241.38
2022-11-23T20:54:58.683Z,100240.50
2022-11-23T20:57:30.649Z,100248.31
2022-11-23T21:00:02.812Z,100250.06
2022-11-23T21:02:34.789Z,100248.34
2022-11-23T21:05:07.431Z,100250.06
2022-11-23T21:07:39.569Z,100258.75
2022-11-23T21:10:32.212Z,100257.88
2022-11-23T21:13:23.172Z,100265.69
2022-11-23T21:15:55.294Z,100265.69
2022-11-23T21:18:27.452Z,100268.28
2022-11-23T21:20:59.527Z,100266.56
2022-11-23T21:23:34.228Z,100270.91
2022-11-23T21:26:06.948Z,100278.69
2022-11-23T21:28:38.899Z,100270.03
2022-11-23T21:31:15.321Z,100279.56
2022-11-23T21:33:52.206Z,100270.91
2022-11-23T21:36:26.122Z,100274.38
2022-11-23T21:38:58.087Z,100270.91
2022-11-23T21:41:30.500Z,100276.09
2022-11-23T21:44:03.655Z,100280.44
2022-11-23T21:46:38.145Z,100279.56
2022-11-23T21:49:10.778Z,100275.22
2022-11-23T21:51:43.792Z,100281.28
2022-11-23T21:54:16.239Z,100279.56
2022-11-23T21:56:48.646Z,100282.16
2022-11-23T21:59:20.667Z,100276.97
2022-11-23T22:01:57.332Z,100283.03
2022-11-23T22:04:29.681Z,100279.56
2022-11-23T22:07:01.819Z,100283.03
2022-11-23T22:09:34.478Z,100288.22
2022-11-23T22:12:06.951Z,100290.81
2022-11-23T22:14:39.335Z,100286.50
2022-11-23T22:17:11.404Z,100288.22
2022-11-23T22:19:43.476Z,100289.97
2022-11-23T22:22:15.649Z,100295.16
2022-11-23T22:24:47.728Z,100300.34
2022-11-23T22:27:19.824Z,100294.28
2022-11-23T22:29:51.875Z,100296.03
2022-11-23T22:32:24.059Z,100296.03
2022-11-23T22:34:56.208Z,100300.34
2022-11-23T22:37:28.321Z,100302.09
2022-11-23T22:40:00.656Z,100302.09
2022-11-23T22:42:32.847Z,100302.94
2022-11-23T22:45:05.425Z,100300.34
2022-11-23T22:47:37.522Z,100299.50
2022-11-23T22:50:10.058Z,100306.41
2022-11-23T22:52:42.259Z,100308.16
2022-11-23T22:55:14.380Z,100309.88
2022-11-23T22:57:46.420Z,100315.94
2022-11-23T23:00:18.890Z,100309.88
2022-11-23T23:02:51.131Z,100316.81
2022-11-23T23:05:23.316Z,100320.28
2022-11-23T23:07:56.370Z,100327.22
2022-11-23T23:10:29.678Z,100324.63
2022-11-23T23:13:01.898Z,100330.69
2022-11-23T23:15:34.024Z,100339.34
2022-11-23T23:18:06.204Z,100346.28
2022-11-23T23:20:38.466Z,100348.00
2022-11-23T23:23:10.684Z,100346.28
2022-11-23T23:25:42.675Z,100354.06
2022-11-23T23:28:14.838Z,100357.53
2022-11-23T23:30:46.977Z,100359.25
2022-11-23T23:33:19.427Z,100364.47
2022-11-23T23:35:51.709Z,100364.47
2022-11-23T23:38:27.775Z,100376.59
2022-11-23T23:41:01.320Z,100373.97
2022-11-23T23:43:34.066Z,100365.31
2022-11-23T23:46:09.958Z,100373.13
2022-11-23T23:48:42.466Z,100374.84
2022-11-23T23:51:18.258Z,100378.31
2022-11-23T23:53:51.455Z,100375.72
2022-11-23T23:56:27.526Z,100376.59
2022-11-23T23:59:00.348Z,100374.84
